sensor_id;sensor_type;location;lat;lon;timestamp;P1;durP1;ratioP1;P2;durP2;ratioP2
50671;SDS011;46021;55.882;37.654;2023-07-13T00:00:19;4.20;;;2.50;;
50671;SDS011;46021;55.882;37.654;2023-07-13T00:02:47;3.10;;;1.90;;
50671;SDS011;46021;55.882;37.654;2023-07-13T00:05:16;2.70;;;1.77;;
50671;SDS011;46021;55.882;37.654;2023-07-13T00:07:43;3.58;;;2.20;;
50671;SDS011;46021;55.882;37.654;2023-07-13T00:10:11;4.40;;;2.22;;
50671;SDS011;46021;55.882;37.654;2023-07-13T00:12:38;2.97;;;1.80;;
50671;SDS011;46021;55.882;37.654;2023-07-13T00:15:07;3.75;;;1.80;;
50671;SDS011;46021;55.882;37.654;2023-07-13T00:17:48;3.65;;;1.92;;
50671;SDS011;46021;55.882;37.654;2023-07-13T00:20:18;3.60;;;1.77;;
50671;SDS011;46021;55.882;37.654;2023-07-13T00:22:48;5.28;;;2.45;;
50671;SDS011;46021;55.882;37.654;2023-07-13T00:25:15;3.10;;;1.90;;
50671;SDS011;46021;55.882;37.654;2023-07-13T00:27:42;4.53;;;2.08;;
50671;SDS011;46021;55.882;37.654;2023-07-13T00:30:10;2.65;;;1.70;;
50671;SDS011;46021;55.882;37.654;2023-07-13T00:32:37;4.32;;;2.17;;
50671;SDS011;46021;55.882;37.654;2023-07-13T00:35:05;4.75;;;1.98;;
50671;SDS011;46021;55.882;37.654;2023-07-13T00:37:34;5.35;;;2.25;;
50671;SDS011;46021;55.882;37.654;2023-07-13T00:40:02;4.32;;;2.05;;
50671;SDS011;46021;55.882;37.654;2023-07-13T00:45:00;3.40;;;2.20;;
50671;SDS011;46021;55.882;37.654;2023-07-13T00:47:30;4.43;;;2.25;;
50671;SDS011;46021;55.882;37.654;2023-07-13T00:49:57;4.40;;;2.10;;
50671;SDS011;46021;55.882;37.654;2023-07-13T00:52:25;4.40;;;2.03;;
50671;SDS011;46021;55.882;37.654;2023-07-13T00:57:22;3.13;;;2.20;;
50671;SDS011;46021;55.882;37.654;2023-07-13T00:59:50;3.88;;;2.10;;
50671;SDS011;46021;55.882;37.654;2023-07-13T01:02:20;4.18;;;2.10;;
50671;SDS011;46021;55.882;37.654;2023-07-13T01:04:48;3.47;;;2.15;;
50671;SDS011;46021;55.882;37.654;2023-07-13T01:07:15;3.90;;;2.07;;
50671;SDS011;46021;55.882;37.654;2023-07-13T01:09:43;3.70;;;2.20;;
50671;SDS011;46021;55.882;37.654;2023-07-13T01:12:12;3.75;;;2.20;;
50671;SDS011;46021;55.882;37.654;2023-07-13T01:14:39;3.35;;;1.90;;
50671;SDS011;46021;55.882;37.654;2023-07-13T01:17:08;3.10;;;2.00;;
50671;SDS011;46021;55.882;37.654;2023-07-13T01:19:37;3.95;;;2.08;;
50671;SDS011;46021;55.882;37.654;2023-07-13T01:22:08;6.05;;;2.17;;
50671;SDS011;46021;55.882;37.654;2023-07-13T01:24:37;5.00;;;2.20;;
50671;SDS011;46021;55.882;37.654;2023-07-13T01:27:08;3.63;;;2.03;;
50671;SDS011;46021;55.882;37.654;2023-07-13T01:29:40;3.40;;;2.28;;
50671;SDS011;46021;55.882;37.654;2023-07-13T01:32:08;4.20;;;2.10;;
50671;SDS011;46021;55.882;37.654;2023-07-13T01:34:36;3.15;;;2.03;;
50671;SDS011;46021;55.882;37.654;2023-07-13T01:37:03;4.65;;;2.45;;
50671;SDS011;46021;55.882;37.654;2023-07-13T01:39:33;3.53;;;2.20;;
50671;SDS011;46021;55.882;37.654;2023-07-13T01:42:00;4.68;;;2.55;;
50671;SDS011;46021;55.882;37.654;2023-07-13T01:44:27;3.77;;;2.33;;
50671;SDS011;46021;55.882;37.654;2023-07-13T01:46:54;3.37;;;2.03;;
50671;SDS011;46021;55.882;37.654;2023-07-13T01:49:21;3.45;;;1.80;;
50671;SDS011;46021;55.882;37.654;2023-07-13T01:51:48;5.40;;;2.53;;
50671;SDS011;46021;55.882;37.654;2023-07-13T01:54:16;4.97;;;2.38;;
50671;SDS011;46021;55.882;37.654;2023-07-13T01:56:44;7.13;;;2.43;;
50671;SDS011;46021;55.882;37.654;2023-07-13T01:59:11;4.80;;;2.20;;
50671;SDS011;46021;55.882;37.654;2023-07-13T02:01:38;3.00;;;1.93;;
50671;SDS011;46021;55.882;37.654;2023-07-13T02:04:05;5.70;;;2.47;;
50671;SDS011;46021;55.882;37.654;2023-07-13T02:06:32;5.75;;;2.22;;
50671;SDS011;46021;55.882;37.654;2023-07-13T02:09:00;5.90;;;2.50;;
50671;SDS011;46021;55.882;37.654;2023-07-13T02:11:27;3.67;;;2.20;;
50671;SDS011;46021;55.882;37.654;2023-07-13T02:14:00;3.55;;;1.92;;
50671;SDS011;46021;55.882;37.654;2023-07-13T02:16:29;3.65;;;2.40;;
50671;SDS011;46021;55.882;37.654;2023-07-13T02:21:26;3.55;;;2.22;;
50671;SDS011;46021;55.882;37.654;2023-07-13T02:23:53;6.23;;;2.07;;
50671;SDS011;46021;55.882;37.654;2023-07-13T02:26:20;4.38;;;2.08;;
50671;SDS011;46021;55.882;37.654;2023-07-13T02:28:47;3.13;;;2.03;;
50671;SDS011;46021;55.882;37.654;2023-07-13T02:31:16;4.70;;;2.60;;
50671;SDS011;46021;55.882;37.654;2023-07-13T02:33:45;4.93;;;2.50;;
50671;SDS011;46021;55.882;37.654;2023-07-13T02:36:12;2.95;;;2.13;;
50671;SDS011;46021;55.882;37.654;2023-07-13T02:38:43;5.85;;;2.85;;
50671;SDS011;46021;55.882;37.654;2023-07-13T02:41:11;3.45;;;2.28;;
50671;SDS011;46021;55.882;37.654;2023-07-13T02:48:37;3.50;;;1.83;;
50671;SDS011;46021;55.882;37.654;2023-07-13T02:51:05;4.30;;;2.33;;
50671;SDS011;46021;55.882;37.654;2023-07-13T02:53:34;3.38;;;2.30;;
50671;SDS011;46021;55.882;37.654;2023-07-13T02:56:01;4.18;;;2.63;;
50671;SDS011;46021;55.882;37.654;2023-07-13T02:58:29;5.22;;;2.20;;
50671;SDS011;46021;55.882;37.654;2023-07-13T03:00:56;5.33;;;2.60;;
50671;SDS011;46021;55.882;37.654;2023-07-13T03:03:23;3.55;;;2.28;;
50671;SDS011;46021;55.882;37.654;2023-07-13T03:08:28;4.28;;;2.50;;
50671;SDS011;46021;55.882;37.654;2023-07-13T03:10:59;3.38;;;2.15;;
50671;SDS011;46021;55.882;37.654;2023-07-13T03:13:30;2.90;;;2.13;;
50671;SDS011;46021;55.882;37.654;2023-07-13T03:18:25;7.50;;;2.50;;
50671;SDS011;46021;55.882;37.654;2023-07-13T03:20:53;5.22;;;2.47;;
50671;SDS011;46021;55.882;37.654;2023-07-13T03:25:50;5.40;;;2.80;;
50671;SDS011;46021;55.882;37.654;2023-07-13T03:28:17;6.35;;;2.55;;
50671;SDS011;46021;55.882;37.654;2023-07-13T03:30:44;10.80;;;2.70;;
50671;SDS011;46021;55.882;37.654;2023-07-13T03:33:11;3.70;;;2.37;;
50671;SDS011;46021;55.882;37.654;2023-07-13T03:35:40;5.27;;;2.47;;
50671;SDS011;46021;55.882;37.654;2023-07-13T03:38:07;8.98;;;3.50;;
50671;SDS011;46021;55.882;37.654;2023-07-13T03:40:36;4.80;;;2.63;;
50671;SDS011;46021;55.882;37.654;2023-07-13T03:43:03;7.03;;;2.90;;
50671;SDS011;46021;55.882;37.654;2023-07-13T03:45:31;5.10;;;2.65;;
50671;SDS011;46021;55.882;37.654;2023-07-13T03:47:58;5.22;;;2.90;;
50671;SDS011;46021;55.882;37.654;2023-07-13T03:50:26;6.15;;;2.67;;
50671;SDS011;46021;55.882;37.654;2023-07-13T03:52:53;6.15;;;3.00;;
50671;SDS011;46021;55.882;37.654;2023-07-13T03:55:21;4.45;;;2.78;;
50671;SDS011;46021;55.882;37.654;2023-07-13T03:57:52;4.77;;;2.27;;
50671;SDS011;46021;55.882;37.654;2023-07-13T04:00:39;5.25;;;2.65;;
50671;SDS011;46021;55.882;37.654;2023-07-13T04:03:06;7.10;;;2.60;;
50671;SDS011;46021;55.882;37.654;2023-07-13T04:05:33;5.23;;;2.33;;
50671;SDS011;46021;55.882;37.654;2023-07-13T04:08:01;6.93;;;3.03;;
50671;SDS011;46021;55.882;37.654;2023-07-13T04:10:32;5.72;;;2.78;;
50671;SDS011;46021;55.882;37.654;2023-07-13T04:13:01;4.78;;;2.60;;
50671;SDS011;46021;55.882;37.654;2023-07-13T04:15:29;7.82;;;2.90;;
50671;SDS011;46021;55.882;37.654;2023-07-13T04:17:56;4.20;;;2.33;;
50671;SDS011;46021;55.882;37.654;2023-07-13T04:20:24;11.32;;;2.75;;
50671;SDS011;46021;55.882;37.654;2023-07-13T04:22:51;25.35;;;9.18;;
50671;SDS011;46021;55.882;37.654;2023-07-13T04:25:18;4.80;;;3.08;;
50671;SDS011;46021;55.882;37.654;2023-07-13T04:27:45;6.20;;;2.83;;
50671;SDS011;46021;55.882;37.654;2023-07-13T04:30:14;4.00;;;2.72;;
50671;SDS011;46021;55.882;37.654;2023-07-13T04:32:41;5.78;;;2.40;;
50671;SDS011;46021;55.882;37.654;2023-07-13T04:35:08;6.83;;;2.30;;
50671;SDS011;46021;55.882;37.654;2023-07-13T04:37:35;4.55;;;2.72;;
50671;SDS011;46021;55.882;37.654;2023-07-13T04:40:02;4.33;;;2.50;;
50671;SDS011;46021;55.882;37.654;2023-07-13T04:42:30;6.80;;;2.78;;
50671;SDS011;46021;55.882;37.654;2023-07-13T04:44:59;3.78;;;2.38;;
50671;SDS011;46021;55.882;37.654;2023-07-13T04:47:31;4.22;;;2.03;;
50671;SDS011;46021;55.882;37.654;2023-07-13T04:49:58;5.85;;;2.40;;
50671;SDS011;46021;55.882;37.654;2023-07-13T04:52:25;4.03;;;2.43;;
50671;SDS011;46021;55.882;37.654;2023-07-13T04:54:52;6.57;;;2.47;;
50671;SDS011;46021;55.882;37.654;2023-07-13T04:57:19;6.07;;;2.30;;
50671;SDS011;46021;55.882;37.654;2023-07-13T04:59:46;6.00;;;2.37;;
50671;SDS011;46021;55.882;37.654;2023-07-13T05:02:13;4.07;;;2.37;;
50671;SDS011;46021;55.882;37.654;2023-07-13T05:04:41;3.90;;;2.30;;
50671;SDS011;46021;55.882;37.654;2023-07-13T05:07:09;3.92;;;2.33;;
50671;SDS011;46021;55.882;37.654;2023-07-13T05:12:05;3.80;;;2.50;;
50671;SDS011;46021;55.882;37.654;2023-07-13T05:14:33;6.53;;;2.40;;
50671;SDS011;46021;55.882;37.654;2023-07-13T05:17:00;6.15;;;2.38;;
50671;SDS011;46021;55.882;37.654;2023-07-13T05:19:27;6.40;;;2.40;;
50671;SDS011;46021;55.882;37.654;2023-07-13T05:21:56;4.37;;;2.83;;
50671;SDS011;46021;55.882;37.654;2023-07-13T05:24:23;14.07;;;4.38;;
50671;SDS011;46021;55.882;37.654;2023-07-13T05:26:50;6.73;;;2.73;;
50671;SDS011;46021;55.882;37.654;2023-07-13T05:29:17;5.20;;;3.15;;
50671;SDS011;46021;55.882;37.654;2023-07-13T05:31:44;6.40;;;2.80;;
50671;SDS011;46021;55.882;37.654;2023-07-13T05:34:11;6.57;;;2.97;;
50671;SDS011;46021;55.882;37.654;2023-07-13T05:36:38;8.65;;;2.60;;
50671;SDS011;46021;55.882;37.654;2023-07-13T05:39:06;8.23;;;2.60;;
50671;SDS011;46021;55.882;37.654;2023-07-13T05:41:34;4.82;;;2.75;;
50671;SDS011;46021;55.882;37.654;2023-07-13T05:46:28;6.50;;;3.15;;
50671;SDS011;46021;55.882;37.654;2023-07-13T05:48:56;10.07;;;2.42;;
50671;SDS011;46021;55.882;37.654;2023-07-13T05:51:23;4.57;;;2.73;;
50671;SDS011;46021;55.882;37.654;2023-07-13T05:53:50;5.13;;;2.40;;
50671;SDS011;46021;55.882;37.654;2023-07-13T05:56:18;8.47;;;3.07;;
50671;SDS011;46021;55.882;37.654;2023-07-13T05:58:45;7.38;;;2.72;;
50671;SDS011;46021;55.882;37.654;2023-07-13T06:01:14;8.85;;;2.83;;
50671;SDS011;46021;55.882;37.654;2023-07-13T06:06:09;4.65;;;2.47;;
50671;SDS011;46021;55.882;37.654;2023-07-13T06:08:36;5.72;;;2.50;;
50671;SDS011;46021;55.882;37.654;2023-07-13T06:11:04;5.45;;;2.80;;
50671;SDS011;46021;55.882;37.654;2023-07-13T06:13:34;7.65;;;2.88;;
50671;SDS011;46021;55.882;37.654;2023-07-13T06:16:02;5.03;;;2.75;;
50671;SDS011;46021;55.882;37.654;2023-07-13T06:18:30;4.47;;;2.47;;
50671;SDS011;46021;55.882;37.654;2023-07-13T06:20:58;5.85;;;2.45;;
50671;SDS011;46021;55.882;37.654;2023-07-13T06:23:25;4.35;;;2.05;;
50671;SDS011;46021;55.882;37.654;2023-07-13T06:25:52;5.70;;;3.35;;
50671;SDS011;46021;55.882;37.654;2023-07-13T06:28:19;4.55;;;3.03;;
50671;SDS011;46021;55.882;37.654;2023-07-13T06:30:47;7.05;;;3.10;;
50671;SDS011;46021;55.882;37.654;2023-07-13T06:33:14;4.85;;;2.40;;
50671;SDS011;46021;55.882;37.654;2023-07-13T06:35:42;5.53;;;2.43;;
50671;SDS011;46021;55.882;37.654;2023-07-13T06:38:09;4.88;;;2.63;;
50671;SDS011;46021;55.882;37.654;2023-07-13T06:40:36;4.45;;;2.25;;
50671;SDS011;46021;55.882;37.654;2023-07-13T06:43:03;4.57;;;2.30;;
50671;SDS011;46021;55.882;37.654;2023-07-13T06:45:30;7.57;;;2.55;;
50671;SDS011;46021;55.882;37.654;2023-07-13T06:48:00;4.63;;;2.28;;
50671;SDS011;46021;55.882;37.654;2023-07-13T06:50:27;5.03;;;2.35;;
50671;SDS011;46021;55.882;37.654;2023-07-13T06:52:56;5.13;;;2.50;;
50671;SDS011;46021;55.882;37.654;2023-07-13T06:55:24;4.88;;;2.15;;
50671;SDS011;46021;55.882;37.654;2023-07-13T06:57:52;8.70;;;2.67;;
50671;SDS011;46021;55.882;37.654;2023-07-13T07:00:19;4.57;;;2.20;;
50671;SDS011;46021;55.882;37.654;2023-07-13T07:02:46;4.63;;;2.53;;
50671;SDS011;46021;55.882;37.654;2023-07-13T07:05:14;13.95;;;2.30;;
50671;SDS011;46021;55.882;37.654;2023-07-13T07:07:42;7.70;;;2.30;;
50671;SDS011;46021;55.882;37.654;2023-07-13T07:10:09;4.67;;;2.73;;
50671;SDS011;46021;55.882;37.654;2023-07-13T07:12:36;5.15;;;2.33;;
50671;SDS011;46021;55.882;37.654;2023-07-13T07:15:03;5.95;;;2.50;;
50671;SDS011;46021;55.882;37.654;2023-07-13T07:17:31;8.73;;;2.83;;
50671;SDS011;46021;55.882;37.654;2023-07-13T07:19:58;10.13;;;2.95;;
50671;SDS011;46021;55.882;37.654;2023-07-13T07:22:26;5.20;;;2.70;;
50671;SDS011;46021;55.882;37.654;2023-07-13T07:24:53;6.15;;;2.35;;
50671;SDS011;46021;55.882;37.654;2023-07-13T07:27:20;6.85;;;2.40;;
50671;SDS011;46021;55.882;37.654;2023-07-13T07:29:47;6.07;;;2.42;;
50671;SDS011;46021;55.882;37.654;2023-07-13T07:32:15;7.07;;;2.70;;
50671;SDS011;46021;55.882;37.654;2023-07-13T07:34:42;5.93;;;2.38;;
50671;SDS011;46021;55.882;37.654;2023-07-13T07:37:09;6.75;;;2.65;;
50671;SDS011;46021;55.882;37.654;2023-07-13T07:39:39;9.80;;;3.22;;
50671;SDS011;46021;55.882;37.654;2023-07-13T07:42:06;13.43;;;3.05;;
50671;SDS011;46021;55.882;37.654;2023-07-13T07:44:33;4.55;;;2.40;;
50671;SDS011;46021;55.882;37.654;2023-07-13T07:47:01;5.60;;;2.72;;
50671;SDS011;46021;55.882;37.654;2023-07-13T07:49:28;9.05;;;2.53;;
50671;SDS011;46021;55.882;37.654;2023-07-13T07:51:55;5.15;;;2.47;;
50671;SDS011;46021;55.882;37.654;2023-07-13T07:54:22;6.60;;;2.55;;
50671;SDS011;46021;55.882;37.654;2023-07-13T07:56:50;6.93;;;2.80;;
50671;SDS011;46021;55.882;37.654;2023-07-13T07:59:17;7.05;;;2.60;;
50671;SDS011;46021;55.882;37.654;2023-07-13T08:04:13;7.00;;;2.65;;
50671;SDS011;46021;55.882;37.654;2023-07-13T08:06:40;4.57;;;2.60;;
50671;SDS011;46021;55.882;37.654;2023-07-13T08:09:07;4.90;;;2.67;;
50671;SDS011;46021;55.882;37.654;2023-07-13T08:11:34;6.03;;;2.70;;
50671;SDS011;46021;55.882;37.654;2023-07-13T08:16:30;4.75;;;2.50;;
50671;SDS011;46021;55.882;37.654;2023-07-13T08:21:25;8.43;;;2.70;;
50671;SDS011;46021;55.882;37.654;2023-07-13T08:23:52;9.20;;;2.83;;
50671;SDS011;46021;55.882;37.654;2023-07-13T08:26:19;8.77;;;2.83;;
50671;SDS011;46021;55.882;37.654;2023-07-13T08:28:47;8.77;;;3.22;;
50671;SDS011;46021;55.882;37.654;2023-07-13T08:31:15;8.88;;;3.28;;
50671;SDS011;46021;55.882;37.654;2023-07-13T08:33:42;10.20;;;3.30;;
50671;SDS011;46021;55.882;37.654;2023-07-13T08:36:09;6.05;;;2.90;;
50671;SDS011;46021;55.882;37.654;2023-07-13T08:38:36;5.07;;;2.92;;
50671;SDS011;46021;55.882;37.654;2023-07-13T08:41:09;5.80;;;2.30;;
50671;SDS011;46021;55.882;37.654;2023-07-13T08:43:38;6.57;;;2.72;;
50671;SDS011;46021;55.882;37.654;2023-07-13T08:46:08;5.22;;;2.67;;
50671;SDS011;46021;55.882;37.654;2023-07-13T08:48:43;5.88;;;3.00;;
50671;SDS011;46021;55.882;37.654;2023-07-13T08:51:20;8.30;;;2.67;;
50671;SDS011;46021;55.882;37.654;2023-07-13T08:53:56;5.93;;;2.90;;
50671;SDS011;46021;55.882;37.654;2023-07-13T08:56:28;5.50;;;2.70;;
50671;SDS011;46021;55.882;37.654;2023-07-13T08:58:57;8.45;;;2.60;;
50671;SDS011;46021;55.882;37.654;2023-07-13T09:01:28;5.07;;;3.40;;
50671;SDS011;46021;55.882;37.654;2023-07-13T09:04:02;7.03;;;2.60;;
50671;SDS011;46021;55.882;37.654;2023-07-13T09:06:36;4.82;;;3.13;;
50671;SDS011;46021;55.882;37.654;2023-07-13T09:09:18;6.78;;;2.45;;
50671;SDS011;46021;55.882;37.654;2023-07-13T09:11:55;4.70;;;2.50;;
50671;SDS011;46021;55.882;37.654;2023-07-13T09:17:16;4.57;;;2.60;;
50671;SDS011;46021;55.882;37.654;2023-07-13T09:19:48;9.43;;;3.08;;
50671;SDS011;46021;55.882;37.654;2023-07-13T09:22:21;9.52;;;2.67;;
50671;SDS011;46021;55.882;37.654;2023-07-13T09:24:55;4.45;;;2.80;;
50671;SDS011;46021;55.882;37.654;2023-07-13T09:27:31;7.85;;;2.78;;
50671;SDS011;46021;55.882;37.654;2023-07-13T09:30:07;6.45;;;3.03;;
50671;SDS011;46021;55.882;37.654;2023-07-13T09:32:49;5.65;;;2.60;;
50671;SDS011;46021;55.882;37.654;2023-07-13T09:35:21;4.40;;;2.63;;
50671;SDS011;46021;55.882;37.654;2023-07-13T09:37:52;5.82;;;2.17;;
50671;SDS011;46021;55.882;37.654;2023-07-13T09:40:28;4.60;;;2.53;;
50671;SDS011;46021;55.882;37.654;2023-07-13T09:43:03;4.80;;;2.90;;
50671;SDS011;46021;55.882;37.654;2023-07-13T09:45:36;3.83;;;2.40;;
50671;SDS011;46021;55.882;37.654;2023-07-13T09:48:05;5.22;;;2.50;;
50671;SDS011;46021;55.882;37.654;2023-07-13T09:50:35;4.95;;;2.90;;
50671;SDS011;46021;55.882;37.654;2023-07-13T09:53:02;4.53;;;2.47;;
50671;SDS011;46021;55.882;37.654;2023-07-13T09:55:30;5.63;;;3.20;;
50671;SDS011;46021;55.882;37.654;2023-07-13T09:58:02;4.20;;;2.70;;
50671;SDS011;46021;55.882;37.654;2023-07-13T10:00:31;4.60;;;2.78;;
50671;SDS011;46021;55.882;37.654;2023-07-13T10:03:00;5.70;;;3.08;;
50671;SDS011;46021;55.882;37.654;2023-07-13T10:05:38;5.28;;;2.90;;
50671;SDS011;46021;55.882;37.654;2023-07-13T10:08:15;6.65;;;3.28;;
50671;SDS011;46021;55.882;37.654;2023-07-13T10:10:52;7.28;;;3.22;;
50671;SDS011;46021;55.882;37.654;2023-07-13T10:13:32;9.43;;;3.22;;
50671;SDS011;46021;55.882;37.654;2023-07-13T10:16:02;5.93;;;3.70;;
50671;SDS011;46021;55.882;37.654;2023-07-13T10:18:34;7.25;;;3.53;;
50671;SDS011;46021;55.882;37.654;2023-07-13T10:21:12;6.22;;;3.28;;
50671;SDS011;46021;55.882;37.654;2023-07-13T10:23:42;7.20;;;3.97;;
50671;SDS011;46021;55.882;37.654;2023-07-13T10:26:12;9.50;;;3.85;;
50671;SDS011;46021;55.882;37.654;2023-07-13T10:28:45;6.15;;;3.63;;
50671;SDS011;46021;55.882;37.654;2023-07-13T10:31:17;10.63;;;3.97;;
50671;SDS011;46021;55.882;37.654;2023-07-13T10:33:46;5.72;;;3.47;;
50671;SDS011;46021;55.882;37.654;2023-07-13T10:36:17;6.82;;;3.88;;
50671;SDS011;46021;55.882;37.654;2023-07-13T10:38:54;8.65;;;3.97;;
50671;SDS011;46021;55.882;37.654;2023-07-13T10:41:24;6.10;;;3.70;;
50671;SDS011;46021;55.882;37.654;2023-07-13T10:43:54;7.18;;;3.70;;
50671;SDS011;46021;55.882;37.654;2023-07-13T10:46:24;6.95;;;3.35;;
50671;SDS011;46021;55.882;37.654;2023-07-13T10:48:54;8.52;;;3.25;;
50671;SDS011;46021;55.882;37.654;2023-07-13T10:51:25;7.07;;;3.97;;
50671;SDS011;46021;55.882;37.654;2023-07-13T10:56:43;6.20;;;3.47;;
50671;SDS011;46021;55.882;37.654;2023-07-13T10:59:11;8.80;;;3.25;;
50671;SDS011;46021;55.882;37.654;2023-07-13T11:01:53;4.82;;;3.13;;
50671;SDS011;46021;55.882;37.654;2023-07-13T11:04:22;6.28;;;3.17;;
50671;SDS011;46021;55.882;37.654;2023-07-13T11:06:56;6.30;;;3.30;;
50671;SDS011;46021;55.882;37.654;2023-07-13T11:09:31;6.07;;;3.30;;
50671;SDS011;46021;55.882;37.654;2023-07-13T11:12:02;5.15;;;3.10;;
50671;SDS011;46021;55.882;37.654;2023-07-13T11:15:00;7.63;;;3.92;;
50671;SDS011;46021;55.882;37.654;2023-07-13T11:17:34;5.90;;;3.20;;
50671;SDS011;46021;55.882;37.654;2023-07-13T11:20:18;6.75;;;3.38;;
50671;SDS011;46021;55.882;37.654;2023-07-13T11:22:51;6.38;;;3.25;;
50671;SDS011;46021;55.882;37.654;2023-07-13T11:25:30;5.68;;;3.13;;
50671;SDS011;46021;55.882;37.654;2023-07-13T11:28:04;14.15;;;4.20;;
50671;SDS011;46021;55.882;37.654;2023-07-13T11:30:36;8.27;;;3.30;;
50671;SDS011;46021;55.882;37.654;2023-07-13T11:33:10;5.43;;;2.95;;
50671;SDS011;46021;55.882;37.654;2023-07-13T11:35:42;4.60;;;3.33;;
50671;SDS011;46021;55.882;37.654;2023-07-13T11:38:15;6.97;;;3.67;;
50671;SDS011;46021;55.882;37.654;2023-07-13T11:40:45;7.38;;;3.40;;
50671;SDS011;46021;55.882;37.654;2023-07-13T11:43:14;9.05;;;3.60;;
50671;SDS011;46021;55.882;37.654;2023-07-13T11:45:42;4.95;;;3.20;;
50671;SDS011;46021;55.882;37.654;2023-07-13T11:48:20;6.25;;;3.53;;
50671;SDS011;46021;55.882;37.654;2023-07-13T11:50:54;7.28;;;3.20;;
50671;SDS011;46021;55.882;37.654;2023-07-13T11:53:26;7.55;;;3.45;;
50671;SDS011;46021;55.882;37.654;2023-07-13T11:55:57;7.40;;;3.33;;
50671;SDS011;46021;55.882;37.654;2023-07-13T11:58:25;7.65;;;3.55;;
50671;SDS011;46021;55.882;37.654;2023-07-13T12:00:55;6.35;;;3.60;;
50671;SDS011;46021;55.882;37.654;2023-07-13T12:03:26;5.85;;;3.15;;
50671;SDS011;46021;55.882;37.654;2023-07-13T12:05:55;5.18;;;3.42;;
50671;SDS011;46021;55.882;37.654;2023-07-13T12:08:23;9.25;;;3.47;;
50671;SDS011;46021;55.882;37.654;2023-07-13T12:10:59;5.72;;;3.60;;
50671;SDS011;46021;55.882;37.654;2023-07-13T12:13:34;7.63;;;4.22;;
50671;SDS011;46021;55.882;37.654;2023-07-13T12:16:07;10.10;;;3.70;;
50671;SDS011;46021;55.882;37.654;2023-07-13T12:18:38;6.93;;;3.95;;
50671;SDS011;46021;55.882;37.654;2023-07-13T12:21:05;5.93;;;3.83;;
50671;SDS011;46021;55.882;37.654;2023-07-13T12:23:42;11.07;;;3.80;;
50671;SDS011;46021;55.882;37.654;2023-07-13T12:26:10;8.60;;;4.30;;
50671;SDS011;46021;55.882;37.654;2023-07-13T12:28:40;8.75;;;4.50;;
50671;SDS011;46021;55.882;37.654;2023-07-13T12:31:31;7.40;;;4.30;;
50671;SDS011;46021;55.882;37.654;2023-07-13T12:34:03;7.25;;;4.05;;
50671;SDS011;46021;55.882;37.654;2023-07-13T12:36:36;6.53;;;3.95;;
50671;SDS011;46021;55.882;37.654;2023-07-13T12:39:12;7.85;;;4.32;;
50671;SDS011;46021;55.882;37.654;2023-07-13T12:41:41;9.43;;;4.70;;
50671;SDS011;46021;55.882;37.654;2023-07-13T12:44:14;8.82;;;4.68;;
50671;SDS011;46021;55.882;37.654;2023-07-13T12:46:52;9.50;;;4.57;;
50671;SDS011;46021;55.882;37.654;2023-07-13T12:49:23;7.47;;;4.00;;
50671;SDS011;46021;55.882;37.654;2023-07-13T12:51:57;9.50;;;4.40;;
50671;SDS011;46021;55.882;37.654;2023-07-13T12:54:27;8.50;;;4.22;;
50671;SDS011;46021;55.882;37.654;2023-07-13T12:56:56;8.43;;;4.55;;
50671;SDS011;46021;55.882;37.654;2023-07-13T12:59:29;10.45;;;5.30;;
50671;SDS011;46021;55.882;37.654;2023-07-13T13:02:02;8.82;;;4.68;;
50671;SDS011;46021;55.882;37.654;2023-07-13T13:04:48;9.25;;;4.90;;
50671;SDS011;46021;55.882;37.654;2023-07-13T13:07:15;11.73;;;4.95;;
50671;SDS011;46021;55.882;37.654;2023-07-13T13:09:44;8.77;;;4.20;;
50671;SDS011;46021;55.882;37.654;2023-07-13T13:12:12;7.78;;;3.85;;
50671;SDS011;46021;55.882;37.654;2023-07-13T13:17:11;12.73;;;4.38;;
50671;SDS011;46021;55.882;37.654;2023-07-13T13:22:13;6.75;;;4.35;;
50671;SDS011;46021;55.882;37.654;2023-07-13T13:24:40;8.68;;;3.88;;
50671;SDS011;46021;55.882;37.654;2023-07-13T13:27:11;9.80;;;3.90;;
50671;SDS011;46021;55.882;37.654;2023-07-13T13:29:44;7.00;;;3.78;;
50671;SDS011;46021;55.882;37.654;2023-07-13T13:32:12;11.05;;;4.43;;
50671;SDS011;46021;55.882;37.654;2023-07-13T13:34:41;7.35;;;3.97;;
50671;SDS011;46021;55.882;37.654;2023-07-13T13:37:11;6.65;;;3.80;;
50671;SDS011;46021;55.882;37.654;2023-07-13T13:39:44;8.45;;;4.13;;
50671;SDS011;46021;55.882;37.654;2023-07-13T13:42:13;9.60;;;3.85;;
50671;SDS011;46021;55.882;37.654;2023-07-13T13:44:41;10.60;;;4.63;;
50671;SDS011;46021;55.882;37.654;2023-07-13T13:47:13;10.73;;;3.73;;
50671;SDS011;46021;55.882;37.654;2023-07-13T13:49:52;9.27;;;4.95;;
50671;SDS011;46021;55.882;37.654;2023-07-13T13:52:19;7.53;;;3.67;;
50671;SDS011;46021;55.882;37.654;2023-07-13T13:54:46;7.20;;;3.70;;
50671;SDS011;46021;55.882;37.654;2023-07-13T13:57:14;6.70;;;3.80;;
50671;SDS011;46021;55.882;37.654;2023-07-13T13:59:41;9.55;;;4.00;;
50671;SDS011;46021;55.882;37.654;2023-07-13T14:02:19;7.03;;;4.17;;
50671;SDS011;46021;55.882;37.654;2023-07-13T14:04:50;8.80;;;3.47;;
50671;SDS011;46021;55.882;37.654;2023-07-13T14:07:21;7.78;;;4.40;;
50671;SDS011;46021;55.882;37.654;2023-07-13T14:09:48;7.70;;;3.20;;
50671;SDS011;46021;55.882;37.654;2023-07-13T14:12:17;8.32;;;4.35;;
50671;SDS011;46021;55.882;37.654;2023-07-13T14:14:44;12.60;;;4.50;;
50671;SDS011;46021;55.882;37.654;2023-07-13T14:17:16;7.30;;;3.88;;
50671;SDS011;46021;55.882;37.654;2023-07-13T14:19:48;10.20;;;3.72;;
50671;SDS011;46021;55.882;37.654;2023-07-13T14:22:22;9.07;;;3.90;;
50671;SDS011;46021;55.882;37.654;2023-07-13T14:24:51;5.93;;;3.55;;
50671;SDS011;46021;55.882;37.654;2023-07-13T14:27:20;11.77;;;4.95;;
50671;SDS011;46021;55.882;37.654;2023-07-13T14:29:47;10.65;;;4.10;;
50671;SDS011;46021;55.882;37.654;2023-07-13T14:32:14;7.47;;;4.70;;
50671;SDS011;46021;55.882;37.654;2023-07-13T14:34:43;11.77;;;5.28;;
50671;SDS011;46021;55.882;37.654;2023-07-13T14:37:11;12.77;;;4.07;;
50671;SDS011;46021;55.882;37.654;2023-07-13T14:39:42;9.43;;;3.97;;
50671;SDS011;46021;55.882;37.654;2023-07-13T14:42:10;7.25;;;3.65;;
50671;SDS011;46021;55.882;37.654;2023-07-13T14:44:39;7.38;;;3.60;;
50671;SDS011;46021;55.882;37.654;2023-07-13T14:47:06;5.82;;;3.83;;
50671;SDS011;46021;55.882;37.654;2023-07-13T14:49:35;6.15;;;3.67;;
50671;SDS011;46021;55.882;37.654;2023-07-13T14:52:08;8.82;;;3.70;;
50671;SDS011;46021;55.882;37.654;2023-07-13T14:54:38;6.22;;;3.72;;
50671;SDS011;46021;55.882;37.654;2023-07-13T14:57:08;7.47;;;3.97;;
50671;SDS011;46021;55.882;37.654;2023-07-13T14:59:36;7.90;;;3.78;;
50671;SDS011;46021;55.882;37.654;2023-07-13T15:02:08;6.27;;;3.80;;
50671;SDS011;46021;55.882;37.654;2023-07-13T15:04:43;9.32;;;3.67;;
50671;SDS011;46021;55.882;37.654;2023-07-13T15:07:11;6.25;;;3.67;;
50671;SDS011;46021;55.882;37.654;2023-07-13T15:09:38;7.60;;;3.75;;
50671;SDS011;46021;55.882;37.654;2023-07-13T15:12:06;6.80;;;4.07;;
50671;SDS011;46021;55.882;37.654;2023-07-13T15:14:34;8.68;;;4.32;;
50671;SDS011;46021;55.882;37.654;2023-07-13T15:17:01;9.65;;;4.32;;
50671;SDS011;46021;55.882;37.654;2023-07-13T15:19:30;7.43;;;3.88;;
50671;SDS011;46021;55.882;37.654;2023-07-13T15:21:58;10.43;;;4.22;;
50671;SDS011;46021;55.882;37.654;2023-07-13T15:24:25;9.77;;;4.78;;
50671;SDS011;46021;55.882;37.654;2023-07-13T15:26:53;7.88;;;3.97;;
50671;SDS011;46021;55.882;37.654;2023-07-13T15:29:20;8.17;;;4.07;;
50671;SDS011;46021;55.882;37.654;2023-07-13T15:31:48;8.57;;;4.00;;